Time;durP1;ratioP1;P1;durP2;ratioP2;P2;SDS_P1;SDS_P2;PMS_P1;PMS_P2;Temp;Humidity;BMP_temperature;BMP_pressure;BME280_temperature;BME280_humidity;BME280_pressure;Samples;Min_cycle;Max_cycle;Signal;HPM_P1;HPM_P2
2022/03/31 00:00:35;;;;;;;38.70;25.83;;;9.50;99.90;;;;;;5052426;28;20116;-57
2022/03/31 00:03:04;;;;;;;41.58;27.38;;;9.50;99.90;;;;;;5052162;28;20063;-57
2022/03/31 00:05:30;;;;;;;58.38;26.98;;;9.50;99.90;;;;;;5051442;28;20319;-57
2022/03/31 00:07:57;;;;;;;38.85;26.60;;;9.40;99.90;;;;;;5052484;28;20058;-57
2022/03/31 00:10:30;;;;;;;40.22;26.23;;;9.30;99.90;;;;;;5052945;28;20032;-57
2022/03/31 00:12:58;;;;;;;36.50;26.65;;;9.30;99.90;;;;;;5052475;28;20020;-57
2022/03/31 00:15:29;;;;;;;42.20;27.63;;;9.40;99.90;;;;;;5052139;28;20032;-57
2022/03/31 00:17:56;;;;;;;44.58;28.85;;;9.50;99.90;;;;;;5051909;28;20017;-57
2022/03/31 00:20:22;;;;;;;39.88;28.40;;;9.50;99.90;;;;;;5052332;28;20033;-59
2022/03/31 00:22:47;;;;;;;39.42;28.25;;;9.40;99.90;;;;;;5052583;28;20071;-57
2022/03/31 00:25:13;;;;;;;43.78;29.08;;;9.40;99.90;;;;;;5052254;28;20025;-56
2022/03/31 00:27:40;;;;;;;43.50;28.55;;;9.30;99.90;;;;;;5051783;28;20104;-57
2022/03/31 00:30:08;;;;;;;41.28;28.10;;;9.50;99.90;;;;;;5051795;28;20507;-57
2022/03/31 00:32:34;;;;;;;40.53;26.40;;;9.50;99.90;;;;;;5052418;28;20032;-57
2022/03/31 00:35:00;;;;;;;42.55;27.52;;;9.40;99.90;;;;;;5052793;28;20059;-57
2022/03/31 00:37:27;;;;;;;40.72;27.55;;;9.60;99.90;;;;;;5051121;28;20025;-57
2022/03/31 00:39:53;;;;;;;41.40;27.35;;;9.50;99.90;;;;;;5052132;28;20043;-57
2022/03/31 00:42:19;;;;;;;43.72;27.40;;;9.40;99.90;;;;;;5052607;28;20500;-58
2022/03/31 00:44:45;;;;;;;39.83;27.27;;;9.40;99.90;;;;;;5051126;28;20048;-57
2022/03/31 00:47:12;;;;;;;42.97;26.55;;;9.30;99.90;;;;;;5051094;28;20433;-57
2022/03/31 00:49:37;;;;;;;41.28;28.48;;;9.40;99.90;;;;;;5051194;28;20498;-57
2022/03/31 00:52:03;;;;;;;43.65;29.33;;;9.30;99.90;;;;;;5051626;28;20025;-57
2022/03/31 00:54:32;;;;;;;46.72;29.08;;;9.20;99.90;;;;;;5051317;28;20390;-57
2022/03/31 00:56:59;;;;;;;46.25;29.65;;;9.10;99.90;;;;;;5050760;28;20485;-56
2022/03/31 00:59:25;;;;;;;46.45;30.48;;;9.00;99.90;;;;;;5050932;28;20367;-57
2022/03/31 01:01:51;;;;;;;47.70;31.90;;;8.90;99.90;;;;;;5051522;28;20087;-57
2022/03/31 01:04:17;;;;;;;50.25;31.92;;;8.90;99.90;;;;;;5051352;28;20021;-57
2022/03/31 01:06:44;;;;;;;48.60;31.23;;;8.90;99.90;;;;;;5051365;28;20028;-57
2022/03/31 01:09:11;;;;;;;44.45;30.17;;;9.00;99.90;;;;;;5051605;28;20036;-57
2022/03/31 01:11:36;;;;;;;49.22;31.10;;;8.90;99.90;;;;;;5051483;28;20107;-57
2022/03/31 01:14:02;;;;;;;42.70;29.02;;;8.90;99.90;;;;;;5051614;28;20608;-57
2022/03/31 01:16:30;;;;;;;46.42;30.10;;;8.90;99.90;;;;;;5051144;28;20024;-57
2022/03/31 01:18:56;;;;;;;49.00;30.38;;;8.90;99.90;;;;;;5051214;28;20052;-57
2022/03/31 01:21:22;;;;;;;45.65;28.65;;;8.90;99.90;;;;;;5051156;28;20091;-58
2022/03/31 01:23:48;;;;;;;47.00;30.20;;;8.80;99.90;;;;;;5049758;28;20036;-58
2022/03/31 01:26:14;;;;;;;49.88;30.10;;;8.80;99.90;;;;;;5050676;28;20478;-57
2022/03/31 01:28:42;;;;;;;46.03;30.23;;;8.70;99.90;;;;;;5066681;28;20032;-57
2022/03/31 01:31:10;;;;;;;46.63;29.13;;;8.60;99.90;;;;;;5050981;28;20110;-58
2022/03/31 01:33:37;;;;;;;45.38;29.35;;;8.60;99.90;;;;;;5050778;28;20470;-57
2022/03/31 01:36:04;;;;;;;44.92;27.98;;;8.60;99.90;;;;;;5050575;28;20017;-57
2022/03/31 01:38:30;;;;;;;40.17;28.63;;;8.60;99.90;;;;;;5050826;28;20024;-57
2022/03/31 01:40:56;;;;;;;42.45;27.80;;;8.70;99.90;;;;;;5052242;28;20029;-57
2022/03/31 01:43:22;;;;;;;39.67;25.42;;;8.80;99.90;;;;;;5054800;28;20391;-57
2022/03/31 01:45:52;;;;;;;37.97;25.33;;;8.70;99.90;;;;;;5055407;28;20068;-57
2022/03/31 01:48:18;;;;;;;38.72;23.45;;;8.80;99.90;;;;;;5055465;28;20041;-56
2022/03/31 01:50:43;;;;;;;32.63;21.70;;;8.80;99.90;;;;;;5055792;28;20509;-56
2022/03/31 01:53:09;;;;;;;28.05;18.05;;;8.70;99.90;;;;;;5055990;28;20021;-57
2022/03/31 01:55:36;;;;;;;23.73;15.80;;;8.60;99.90;;;;;;5055566;28;20502;-57
2022/03/31 01:58:02;;;;;;;20.85;14.88;;;8.60;99.90;;;;;;5055253;28;20024;-57
2022/03/31 02:00:28;;;;;;;19.00;14.00;;;8.50;99.90;;;;;;5054525;28;20100;-57
2022/03/31 02:02:53;;;;;;;19.60;13.35;;;8.50;99.90;;;;;;5054238;28;20541;-57
2022/03/31 02:05:19;;;;;;;19.60;11.68;;;8.50;99.90;;;;;;5054349;28;20025;-55
2022/03/31 02:07:45;;;;;;;17.58;11.07;;;8.40;99.90;;;;;;5054920;28;20104;-56
2022/03/31 02:10:12;;;;;;;16.98;11.10;;;8.40;99.90;;;;;;5054238;28;20060;-56
2022/03/31 02:12:39;;;;;;;15.88;10.63;;;8.40;99.90;;;;;;5053964;28;20036;-56
2022/03/31 02:15:05;;;;;;;17.10;10.93;;;8.30;99.90;;;;;;5053729;28;20017;-56
2022/03/31 02:17:31;;;;;;;12.93;9.77;;;8.30;99.90;;;;;;5054100;28;20098;-56
2022/03/31 02:19:57;;;;;;;15.75;10.20;;;8.30;99.90;;;;;;5054000;28;20490;-56
2022/03/31 02:22:23;;;;;;;15.05;9.38;;;8.20;99.90;;;;;;5054241;28;20104;-56
2022/03/31 02:24:48;;;;;;;15.07;9.38;;;8.20;99.90;;;;;;5054112;28;20078;-56
2022/03/31 02:27:14;;;;;;;12.93;8.45;;;8.20;99.90;;;;;;5054066;28;20395;-56
2022/03/31 02:29:40;;;;;;;12.45;7.15;;;8.10;99.90;;;;;;5054306;28;20028;-56
2022/03/31 02:32:07;;;;;;;12.90;6.95;;;8.00;99.90;;;;;;5053776;28;20041;-56
2022/03/31 02:34:34;;;;;;;10.80;7.28;;;7.80;99.90;;;;;;5054827;28;20113;-56
2022/03/31 02:37:00;;;;;;;12.50;7.22;;;7.70;99.90;;;;;;5054491;28;20107;-56
2022/03/31 02:39:28;;;;;;;14.65;7.68;;;7.50;99.90;;;;;;5054032;28;20047;-56
2022/03/31 02:41:57;;;;;;;10.77;7.13;;;7.30;99.90;;;;;;5053784;28;20013;-57
2022/03/31 02:44:23;;;;;;;10.70;6.32;;;7.20;99.90;;;;;;5053897;28;20123;-56
2022/03/31 02:46:49;;;;;;;13.63;7.22;;;6.90;99.90;;;;;;5053749;28;20056;-56
2022/03/31 02:49:14;;;;;;;11.80;7.28;;;6.80;99.90;;;;;;5053544;28;20041;-56
2022/03/31 02:51:40;;;;;;;16.80;7.95;;;6.60;99.90;;;;;;5053029;28;20057;-56
2022/03/31 02:56:50;;;;;;;16.00;8.60;;;6.50;99.90;;;;;;5055215;28;20056;-56
2022/03/31 02:59:15;;;;;;;14.45;9.00;;;6.40;99.90;;;;;;5054263;28;20029;-56
2022/03/31 03:01:43;;;;;;;12.05;8.57;;;6.40;99.90;;;;;;5054600;28;20112;-56
2022/03/31 03:04:09;;;;;;;12.35;8.75;;;6.40;99.90;;;;;;5054463;28;20021;-56
2022/03/31 03:06:36;;;;;;;15.27;8.10;;;6.40;99.90;;;;;;5054199;28;20082;-56
2022/03/31 03:09:03;;;;;;;11.95;8.63;;;6.30;99.90;;;;;;5069558;28;20501;-56
2022/03/31 03:11:29;;;;;;;15.85;9.55;;;6.30;99.90;;;;;;5052911;28;20013;-56
2022/03/31 03:13:54;;;;;;;13.65;9.15;;;6.20;99.90;;;;;;5053237;28;20486;-56
2022/03/31 03:16:21;;;;;;;15.63;9.57;;;6.20;99.90;;;;;;5054146;28;20154;-56
2022/03/31 03:18:46;;;;;;;16.80;9.70;;;6.30;99.90;;;;;;5053969;28;20025;-56
2022/03/31 03:21:12;;;;;;;13.27;9.38;;;6.20;99.90;;;;;;5053407;28;20029;-56
2022/03/31 03:23:39;;;;;;;14.65;9.45;;;6.10;99.90;;;;;;5053316;28;20070;-56
2022/03/31 03:26:06;;;;;;;11.75;8.93;;;6.00;99.90;;;;;;5053766;28;20545;-56
2022/03/31 03:28:36;;;;;;;13.45;8.43;;;6.00;99.90;;;;;;5068612;28;20198;-56
2022/03/31 03:31:03;;;;;;;12.38;8.70;;;6.00;99.90;;;;;;5068248;28;20035;-57
2022/03/31 03:33:29;;;;;;;10.98;8.35;;;5.90;99.90;;;;;;5052542;28;20029;-56
2022/03/31 03:35:55;;;;;;;13.38;7.90;;;5.90;99.90;;;;;;5052686;28;20087;-56
2022/03/31 03:38:21;;;;;;;9.98;6.93;;;5.80;99.90;;;;;;5052822;28;20029;-56
2022/03/31 03:40:46;;;;;;;5.20;4.78;;;5.80;99.90;;;;;;5052540;28;20503;-56
2022/03/31 03:43:12;;;;;;;4.07;3.60;;;5.70;99.90;;;;;;5052169;28;20033;-56
2022/03/31 03:45:38;;;;;;;4.00;3.30;;;5.50;99.90;;;;;;5052507;28;20070;-55
2022/03/31 03:48:06;;;;;;;3.95;3.38;;;5.30;99.90;;;;;;5053259;28;20111;-56
2022/03/31 03:50:35;;;;;;;4.22;3.00;;;5.10;99.90;;;;;;5053128;28;20379;-56
2022/03/31 03:53:04;;;;;;;17.95;3.53;;;4.90;99.90;;;;;;5052765;28;20029;-56
2022/03/31 03:55:34;;;;;;;3.88;3.58;;;4.80;99.90;;;;;;5052304;28;20413;-57
2022/03/31 03:58:00;;;;;;;3.92;3.28;;;4.70;99.90;;;;;;5053280;28;20079;-56
2022/03/31 04:00:27;;;;;;;2.88;2.63;;;4.70;99.90;;;;;;5053294;28;20040;-56
2022/03/31 04:02:53;;;;;;;4.75;3.20;;;4.70;99.90;;;;;;5052640;28;20032;-56
2022/03/31 04:05:20;;;;;;;5.50;3.75;;;4.70;99.90;;;;;;5067817;28;20508;-55
2022/03/31 04:07:45;;;;;;;3.53;3.22;;;4.70;99.90;;;;;;5052481;28;20163;-56
2022/03/31 04:10:11;;;;;;;3.85;3.55;;;4.60;99.90;;;;;;5052628;28;20111;-56
2022/03/31 04:12:38;;;;;;;3.30;3.00;;;4.70;99.90;;;;;;5052363;28;20228;-56
2022/03/31 04:15:06;;;;;;;3.42;3.10;;;4.60;99.90;;;;;;5053466;28;20127;-56
2022/03/31 04:17:32;;;;;;;4.50;3.35;;;4.60;99.90;;;;;;5053215;28;20052;-56
2022/03/31 04:19:58;;;;;;;3.72;3.38;;;4.50;99.90;;;;;;5052793;28;20479;-56
2022/03/31 04:22:23;;;;;;;3.83;3.53;;;4.50;99.90;;;;;;5052953;28;20067;-56
2022/03/31 04:24:49;;;;;;;4.97;3.47;;;4.40;99.90;;;;;;5052290;28;20076;-55
2022/03/31 04:27:15;;;;;;;3.75;3.45;;;4.40;99.90;;;;;;5052438;28;20025;-56
2022/03/31 04:29:40;;;;;;;3.58;3.28;;;4.40;99.90;;;;;;5052137;28;20029;-56
2022/03/31 04:32:07;;;;;;;3.50;3.20;;;4.40;99.90;;;;;;5066804;28;20112;-56
2022/03/31 04:34:34;;;;;;;4.40;4.00;;;4.40;99.90;;;;;;5051839;28;20359;-56
2022/03/31 04:37:00;;;;;;;3.83;3.42;;;4.40;99.90;;;;;;5051727;28;20032;-56
2022/03/31 04:39:26;;;;;;;3.60;3.30;;;4.40;99.90;;;;;;5052980;28;20021;-56
2022/03/31 04:41:52;;;;;;;3.90;3.50;;;4.30;99.90;;;;;;5052592;28;20071;-55
2022/03/31 04:44:18;;;;;;;5.82;4.22;;;4.30;99.90;;;;;;5053379;28;20032;-55
2022/03/31 04:46:45;;;;;;;4.32;3.92;;;4.30;99.90;;;;;;5053129;28;20033;-55
2022/03/31 04:49:11;;;;;;;8.38;3.78;;;4.20;99.90;;;;;;5052704;28;20072;-55
2022/03/31 04:51:37;;;;;;;4.55;4.15;;;4.20;99.90;;;;;;5068149;28;20033;-55
2022/03/31 04:54:06;;;;;;;4.10;3.80;;;4.10;99.90;;;;;;5053049;28;20564;-56
2022/03/31 04:56:32;;;;;;;4.30;4.00;;;4.30;99.90;;;;;;5052492;28;20028;-55
2022/03/31 04:58:58;;;;;;;4.53;4.13;;;4.30;99.90;;;;;;5051901;28;20064;-55
2022/03/31 05:01:24;;;;;;;5.13;4.60;;;4.30;99.90;;;;;;5052080;28;20013;-55
2022/03/31 05:03:51;;;;;;;5.28;4.80;;;4.30;99.90;;;;;;5051269;28;20049;-55
2022/03/31 05:06:17;;;;;;;5.20;4.80;;;4.30;99.90;;;;;;5050994;28;20037;-55
2022/03/31 05:08:43;;;;;;;6.10;5.00;;;4.20;99.90;;;;;;5051564;28;20028;-55
2022/03/31 05:11:09;;;;;;;6.32;5.70;;;4.10;99.90;;;;;;5053151;28;20580;-55
2022/03/31 05:13:34;;;;;;;9.40;6.40;;;4.10;99.90;;;;;;5052102;28;20021;-55
2022/03/31 05:16:00;;;;;;;6.72;6.03;;;4.10;99.90;;;;;;5051299;28;20028;-55
2022/03/31 05:18:26;;;;;;;8.68;7.78;;;4.10;99.90;;;;;;5051667;28;20478;-55
2022/03/31 05:20:52;;;;;;;8.35;7.55;;;4.10;99.90;;;;;;5050703;28;20066;-55
2022/03/31 05:23:19;;;;;;;9.82;8.82;;;4.10;99.90;;;;;;5051171;28;20033;-55
2022/03/31 05:25:45;;;;;;;9.73;8.73;;;4.20;99.90;;;;;;5051604;28;20082;-56
2022/03/31 05:28:11;;;;;;;9.63;8.73;;;4.10;99.90;;;;;;5051936;28;20036;-56
2022/03/31 05:30:37;;;;;;;9.45;8.55;;;4.10;99.90;;;;;;5051484;28;20052;-56
2022/03/31 05:33:03;;;;;;;9.55;8.52;;;4.20;99.90;;;;;;5051812;28;20032;-56
2022/03/31 05:35:29;;;;;;;10.07;9.07;;;4.10;99.90;;;;;;5051632;28;20029;-56
2022/03/31 05:37:56;;;;;;;11.82;9.32;;;4.20;99.90;;;;;;5051592;28;20048;-56
2022/03/31 05:40:22;;;;;;;9.68;8.75;;;4.30;99.90;;;;;;5051717;28;20040;-56
2022/03/31 05:42:48;;;;;;;8.77;7.88;;;4.20;99.90;;;;;;5052377;28;20094;-56
2022/03/31 05:45:14;;;;;;;9.48;8.57;;;4.20;99.90;;;;;;5051727;28;20478;-56
2022/03/31 05:47:42;;;;;;;8.77;7.88;;;4.20;99.90;;;;;;5050443;28;20079;-56
2022/03/31 05:50:08;;;;;;;9.07;8.07;;;4.20;99.90;;;;;;5052205;28;20532;-56
2022/03/31 05:52:44;;;;;;;8.68;7.88;;;4.20;99.90;;;;;;5050972;28;20060;-56
2022/03/31 05:55:13;;;;;;;9.45;8.35;;;4.20;99.90;;;;;;5043123;28;20556;-56
2022/03/31 05:57:40;;;;;;;8.05;7.25;;;4.20;99.90;;;;;;5045597;28;20032;-54
2022/03/31 06:00:08;;;;;;;8.73;7.82;;;4.10;99.90;;;;;;5050454;28;20445;-56
2022/03/31 06:02:34;;;;;;;9.30;8.38;;;4.10;99.90;;;;;;5048801;28;20532;-56
2022/03/31 06:04:59;;;;;;;10.32;8.90;;;4.10;99.90;;;;;;5046121;28;20025;-56
2022/03/31 06:07:25;;;;;;;13.52;10.10;;;4.10;99.90;;;;;;5043046;28;20025;-56
2022/03/31 06:09:51;;;;;;;11.30;8.55;;;4.20;99.90;;;;;;5042420;28;20025;-56
2022/03/31 06:12:16;;;;;;;9.10;8.20;;;4.20;99.90;;;;;;5048570;28;20049;-56
2022/03/31 06:14:42;;;;;;;10.98;9.10;;;4.30;99.90;;;;;;5046126;28;20036;-56
2022/03/31 06:17:08;;;;;;;9.85;8.75;;;4.30;99.90;;;;;;5047173;28;20021;-56
2022/03/31 06:19:34;;;;;;;22.23;10.35;;;4.40;99.90;;;;;;5046405;28;20114;-56
2022/03/31 06:22:00;;;;;;;12.25;8.95;;;4.50;99.90;;;;;;5048168;28;20498;-56
2022/03/31 06:24:26;;;;;;;11.80;9.93;;;4.60;99.90;;;;;;5047210;28;20037;-56
2022/03/31 06:26:52;;;;;;;13.27;9.50;;;4.70;99.90;;;;;;5052318;28;20059;-55
2022/03/31 06:29:17;;;;;;;16.17;9.82;;;4.70;99.90;;;;;;5051795;28;20029;-54
2022/03/31 06:31:43;;;;;;;15.95;9.82;;;4.80;99.90;;;;;;5047795;28;20037;-55
2022/03/31 06:34:09;;;;;;;12.48;9.75;;;4.90;99.90;;;;;;5051117;28;20040;-55
2022/03/31 06:36:35;;;;;;;11.05;9.85;;;4.80;99.90;;;;;;5046271;28;20343;-55
2022/03/31 06:39:01;;;;;;;11.75;10.32;;;4.70;99.90;;;;;;5046260;28;20025;-55
2022/03/31 06:41:27;;;;;;;11.95;10.15;;;4.70;99.90;;;;;;5047015;28;20242;-55
2022/03/31 06:43:52;;;;;;;9.80;8.80;;;4.80;99.90;;;;;;5051317;28;20043;-55
2022/03/31 06:46:18;;;;;;;12.68;9.93;;;4.70;99.90;;;;;;5051057;28;20028;-55
2022/03/31 06:48:46;;;;;;;15.02;11.75;;;4.70;99.90;;;;;;5045210;28;20517;-55
2022/03/31 06:51:13;;;;;;;14.02;12.07;;;4.70;99.90;;;;;;5047926;28;20029;-55
2022/03/31 06:53:39;;;;;;;13.18;10.80;;;4.70;99.90;;;;;;5051066;28;20490;-54
2022/03/31 06:56:10;;;;;;;15.32;11.52;;;4.70;99.90;;;;;;5050708;28;20035;-55
2022/03/31 06:58:36;;;;;;;12.18;10.65;;;4.80;99.90;;;;;;5050436;28;20023;-55
2022/03/31 07:01:04;;;;;;;11.93;10.68;;;4.90;99.90;;;;;;5041174;28;20039;-55
2022/03/31 07:03:30;;;;;;;10.55;8.32;;;4.90;99.90;;;;;;5052554;28;20021;-55
2022/03/31 07:05:56;;;;;;;12.30;8.85;;;4.90;99.90;;;;;;5048317;28;20454;-55
2022/03/31 07:08:22;;;;;;;13.10;9.93;;;5.00;99.90;;;;;;5046590;28;20052;-55
2022/03/31 07:10:47;;;;;;;9.50;8.10;;;5.00;99.90;;;;;;5050196;28;20067;-55
2022/03/31 07:13:13;;;;;;;9.75;8.43;;;4.90;99.90;;;;;;5048713;28;20064;-55
2022/03/31 07:15:39;;;;;;;9.57;8.15;;;4.90;99.90;;;;;;5042716;28;20025;-55
2022/03/31 07:18:05;;;;;;;8.13;7.15;;;4.90;99.90;;;;;;5048716;28;20532;-55
2022/03/31 07:20:32;;;;;;;7.82;6.78;;;4.90;99.90;;;;;;5051722;28;20486;-57
2022/03/31 07:22:58;;;;;;;7.07;6.35;;;4.90;99.90;;;;;;5047567;28;20078;-56
2022/03/31 07:25:24;;;;;;;7.30;6.57;;;5.00;99.90;;;;;;5046191;28;20028;-56
2022/03/31 07:27:50;;;;;;;8.57;6.20;;;5.20;99.90;;;;;;5045928;28;20555;-55
2022/03/31 07:30:35;;;;;;;7.32;6.57;;;5.30;99.90;;;;;;5047857;28;20024;-56
2022/03/31 07:33:03;;;;;;;6.15;5.57;;;5.20;99.90;;;;;;5046136;28;20025;-55
2022/03/31 07:35:31;;;;;;;6.05;5.45;;;5.20;99.90;;;;;;5049002;28;20233;-55
2022/03/31 07:37:58;;;;;;;5.22;4.82;;;5.10;99.90;;;;;;5041450;28;20016;-55
2022/03/31 07:40:26;;;;;;;6.00;5.40;;;5.10;99.90;;;;;;5045996;28;20028;-55
2022/03/31 07:42:53;;;;;;;6.65;5.00;;;5.10;99.90;;;;;;5048979;28;20032;-55
2022/03/31 07:45:19;;;;;;;5.03;4.53;;;5.10;99.90;;;;;;5044613;28;20051;-55
2022/03/31 07:47:46;;;;;;;5.18;4.78;;;5.10;99.90;;;;;;5046199;28;20032;-56
2022/03/31 07:50:14;;;;;;;5.13;4.50;;;5.10;99.90;;;;;;5048266;28;20025;-56
2022/03/31 07:52:41;;;;;;;5.07;4.60;;;5.10;99.90;;;;;;5045707;28;20024;-55
2022/03/31 07:55:15;;;;;;;5.97;5.05;;;5.10;99.90;;;;;;5049627;28;20021;-56
2022/03/31 07:57:41;;;;;;;5.60;4.70;;;5.10;99.90;;;;;;5047454;28;21596;-55
2022/03/31 08:00:09;;;;;;;4.97;4.47;;;5.10;99.90;;;;;;5046300;28;20398;-55
2022/03/31 08:02:35;;;;;;;5.00;4.45;;;5.10;99.90;;;;;;5043726;28;20024;-55
2022/03/31 08:05:01;;;;;;;4.15;3.67;;;5.10;99.90;;;;;;5047034;28;20398;-56
2022/03/31 08:07:26;;;;;;;4.38;3.95;;;5.10;99.90;;;;;;5046583;28;20424;-56
2022/03/31 08:09:52;;;;;;;7.90;3.95;;;5.10;99.90;;;;;;5048038;28;20033;-55
2022/03/31 08:12:18;;;;;;;4.50;3.85;;;5.20;99.90;;;;;;5045036;28;20478;-55
2022/03/31 08:14:43;;;;;;;4.72;3.70;;;5.30;99.90;;;;;;5056417;28;20033;-55
2022/03/31 08:17:09;;;;;;;28.02;4.57;;;5.40;99.90;;;;;;5043089;28;20017;-56
2022/03/31 08:19:35;;;;;;;15.77;3.45;;;5.70;99.90;;;;;;5046129;28;20398;-57
2022/03/31 08:22:02;;;;;;;6.28;3.22;;;6.00;99.90;;;;;;5051393;28;20048;-57
2022/03/31 08:24:31;;;;;;;4.80;3.05;;;6.10;99.90;;;;;;5049972;28;20029;-56
2022/03/31 08:27:00;;;;;;;7.63;2.78;;;6.20;99.90;;;;;;5049198;28;20031;-57
2022/03/31 08:29:26;;;;;;;2.65;2.45;;;6.30;99.90;;;;;;5047987;28;20043;-57
2022/03/31 08:31:52;;;;;;;12.55;3.15;;;6.20;99.90;;;;;;5040832;28;20502;-56
2022/03/31 08:34:18;;;;;;;2.15;1.95;;;6.10;99.90;;;;;;5043815;28;20047;-56
2022/03/31 08:36:44;;;;;;;2.95;2.00;;;5.90;99.90;;;;;;5044282;28;20062;-57
2022/03/31 08:39:10;;;;;;;2.80;1.95;;;6.00;99.90;;;;;;5048500;28;20029;-56
2022/03/31 08:41:36;;;;;;;2.58;1.75;;;6.30;99.90;;;;;;5048898;28;20436;-56
2022/03/31 08:44:02;;;;;;;6.20;1.98;;;6.80;99.90;;;;;;5049807;28;20027;-56
2022/03/31 08:46:31;;;;;;;4.63;1.42;;;7.40;99.90;;;;;;5037135;28;20033;-56
2022/03/31 08:48:58;;;;;;;2.70;1.55;;;7.90;99.90;;;;;;5047409;28;20510;-57
2022/03/31 08:51:25;;;;;;;2.53;1.33;;;7.80;99.90;;;;;;5059131;28;20406;-56
2022/03/31 08:53:51;;;;;;;2.97;2.00;;;7.50;99.90;;;;;;5049092;28;20033;-56
2022/03/31 08:56:16;;;;;;;2.00;1.60;;;7.30;99.90;;;;;;5048952;28;20032;-56
2022/03/31 08:58:46;;;;;;;4.43;1.83;;;7.40;99.90;;;;;;5041971;28;20033;-56
2022/03/31 09:01:13;;;;;;;10.32;2.00;;;7.40;99.90;;;;;;5051253;28;20056;-56
2022/03/31 09:03:40;;;;;;;6.00;1.80;;;7.20;99.90;;;;;;5050510;28;20066;-57
2022/03/31 09:06:07;;;;;;;2.30;2.10;;;7.10;99.90;;;;;;5050232;28;20060;-56
2022/03/31 09:08:33;;;;;;;2.53;1.90;;;7.30;99.90;;;;;;5048957;28;20040;-56
2022/03/31 09:11:03;;;;;;;3.80;1.85;;;7.60;99.90;;;;;;5047091;28;20405;-56
2022/03/31 09:13:37;;;;;;;3.42;1.48;;;7.70;99.90;;;;;;5049603;28;20486;-56
2022/03/31 09:16:11;;;;;;;1.98;1.42;;;8.30;99.90;;;;;;5048587;28;20036;-57
2022/03/31 09:18:38;;;;;;;2.13;1.90;;;8.50;99.90;;;;;;5049557;28;20032;-56
2022/03/31 09:21:06;;;;;;;4.82;2.83;;;8.50;99.90;;;;;;5046615;28;20017;-57
2022/03/31 09:23:41;;;;;;;3.95;1.73;;;8.40;99.90;;;;;;5042797;28;20064;-58
2022/03/31 09:26:12;;;;;;;4.13;2.10;;;8.30;99.90;;;;;;5065177;28;20029;-57
2022/03/31 09:28:38;;;;;;;3.10;1.77;;;8.40;99.90;;;;;;5048283;28;20041;-57
2022/03/31 09:31:08;;;;;;;3.40;1.70;;;8.50;99.90;;;;;;5060245;28;20025;-56
2022/03/31 09:33:40;;;;;;;4.22;1.98;;;8.20;99.90;;;;;;5044429;28;20444;-56
2022/03/31 09:36:07;;;;;;;3.30;2.13;;;8.00;99.90;;;;;;5044085;28;20344;-57
2022/03/31 09:38:38;;;;;;;7.43;2.97;;;7.60;99.90;;;;;;5041775;28;20025;-57
2022/03/31 09:41:24;;;;;;;6.28;2.35;;;7.60;99.90;;;;;;5049100;28;20036;-56
2022/03/31 09:43:51;;;;;;;8.32;2.50;;;7.70;99.90;;;;;;5042539;28;20033;-56
2022/03/31 09:46:24;;;;;;;4.80;2.20;;;7.60;99.90;;;;;;5043046;28;20536;-56
2022/03/31 09:48:51;;;;;;;7.75;3.20;;;7.70;99.90;;;;;;5047941;28;20531;-57
2022/03/31 09:51:19;;;;;;;9.13;4.18;;;7.60;99.90;;;;;;5046952;28;20029;-57
2022/03/31 09:53:48;;;;;;;6.30;2.20;;;7.70;99.90;;;;;;5047113;28;20033;-57
2022/03/31 09:56:17;;;;;;;3.95;1.75;;;7.90;99.90;;;;;;5046809;28;20028;-57
2022/03/31 09:58:44;;;;;;;5.95;1.90;;;8.00;99.90;;;;;;5047657;28;20040;-56
2022/03/31 10:01:10;;;;;;;4.28;1.77;;;8.00;99.90;;;;;;5044974;28;20521;-56
2022/03/31 10:03:39;;;;;;;1.83;1.40;;;8.00;99.90;;;;;;5052859;28;20021;-56
2022/03/31 10:06:06;;;;;;;4.38;1.52;;;8.10;99.90;;;;;;5053048;28;20049;-56
2022/03/31 10:08:42;;;;;;;3.10;1.30;;;8.50;99.90;;;;;;5046349;28;20025;-57
2022/03/31 10:11:10;;;;;;;4.03;1.58;;;8.60;99.90;;;;;;5049433;28;20032;-56
2022/03/31 10:14:10;;;;;;;3.10;1.60;;;8.40;99.90;;;;;;5042644;28;20141;-57
2022/03/31 10:16:44;;;;;;;2.05;1.60;;;8.80;99.90;;;;;;5018036;28;20041;-57
2022/03/31 10:19:10;;;;;;;4.18;1.80;;;8.90;99.90;;;;;;5046615;28;20029;-57
2022/03/31 10:21:36;;;;;;;10.13;2.35;;;9.20;99.90;;;;;;5051531;28;20461;-57
2022/03/31 10:26:57;;;;;;;5.03;1.92;;;9.50;99.90;;;;;;5052231;28;20032;-57
2022/03/31 10:29:23;;;;;;;7.57;2.17;;;9.10;99.90;;;;;;5048656;28;20175;-57
2022/03/31 10:31:49;;;;;;;6.32;2.50;;;9.00;99.90;;;;;;5049474;28;20116;-57
2022/03/31 10:34:15;;;;;;;6.13;2.38;;;9.10;99.90;;;;;;5057231;28;20095;-57
2022/03/31 10:36:47;;;;;;;5.00;2.65;;;9.00;99.90;;;;;;5052883;28;20044;-57
2022/03/31 10:39:24;;;;;;;5.05;2.75;;;9.00;99.90;;;;;;5051837;28;20033;-57
2022/03/31 10:42:10;;;;;;;11.00;3.08;;;8.80;99.90;;;;;;5052093;28;20146;-57
2022/03/31 10:44:35;;;;;;;15.00;4.03;;;9.00;99.90;;;;;;5044510;28;20428;-57
2022/03/31 10:47:06;;;;;;;5.95;3.83;;;9.00;99.90;;;;;;5048916;28;20111;-57
2022/03/31 10:49:34;;;;;;;7.97;4.03;;;8.90;99.90;;;;;;5051613;28;20049;-56
2022/03/31 10:52:10;;;;;;;52.55;8.57;;;8.60;99.90;;;;;;5041633;28;20414;-57
2022/03/31 10:54:36;;;;;;;10.57;4.57;;;8.50;99.90;;;;;;5041340;28;20040;-57
2022/03/31 10:57:18;;;;;;;16.85;4.50;;;8.60;99.90;;;;;;5045824;28;20036;-57
2022/03/31 10:59:46;;;;;;;17.38;4.50;;;8.60;99.90;;;;;;5046739;28;20681;-57
2022/03/31 11:02:18;;;;;;;14.13;4.65;;;9.00;99.90;;;;;;5050626;28;20339;-57
2022/03/31 11:04:57;;;;;;;7.25;4.22;;;9.50;99.90;;;;;;5049908;28;20355;-57
2022/03/31 11:07:25;;;;;;;9.25;3.85;;;9.90;99.90;;;;;;5047590;28;20418;-57
2022/03/31 11:10:20;;;;;;;5.60;3.20;;;9.90;99.90;;;;;;5048288;28;20518;-57
2022/03/31 11:12:47;;;;;;;9.15;3.60;;;9.80;99.90;;;;;;5036935;28;20061;-57
2022/03/31 11:15:15;;;;;;;8.07;4.60;;;9.70;99.90;;;;;;5044429;28;20032;-57
2022/03/31 11:17:42;;;;;;;10.93;3.67;;;9.50;99.90;;;;;;5047282;28;20132;-57
2022/03/31 11:20:22;;;;;;;8.43;4.20;;;9.50;99.90;;;;;;5050464;28;20446;-57
2022/03/31 11:22:58;;;;;;;6.13;2.17;;;9.80;99.90;;;;;;5061901;28;20362;-57
2022/03/31 11:25:24;;;;;;;4.72;2.20;;;9.90;99.90;;;;;;5047033;28;20429;-57
2022/03/31 11:27:50;;;;;;;3.97;1.80;;;9.80;99.90;;;;;;5047194;28;20017;-57
2022/03/31 11:30:18;;;;;;;5.68;2.15;;;9.70;99.90;;;;;;5047194;28;20033;-57
2022/03/31 11:32:48;;;;;;;8.70;3.45;;;9.70;99.90;;;;;;5042974;28;20029;-57
2022/03/31 11:35:17;;;;;;;5.20;2.25;;;9.50;99.90;;;;;;5047675;28;20025;-57
2022/03/31 11:37:51;;;;;;;5.68;2.55;;;9.40;99.90;;;;;;5045977;28;20248;-57
2022/03/31 11:40:26;;;;;;;4.05;2.55;;;9.50;99.90;;;;;;5036830;28;20025;-57
2022/03/31 11:42:54;;;;;;;4.03;1.95;;;9.60;99.90;;;;;;5049715;28;20025;-57
2022/03/31 11:45:27;;;;;;;2.53;1.90;;;9.70;99.90;;;;;;5048214;28;20057;-57
2022/03/31 11:47:58;;;;;;;4.50;2.15;;;9.90;99.90;;;;;;5063201;28;20053;-57
2022/03/31 11:50:26;;;;;;;5.50;2.70;;;10.10;99.90;;;;;;5051291;28;20546;-57
2022/03/31 11:52:52;;;;;;;4.85;2.80;;;10.30;99.90;;;;;;5045963;28;20024;-57
2022/03/31 11:55:21;;;;;;;4.88;2.40;;;10.20;99.90;;;;;;5043377;28;20027;-57
2022/03/31 11:57:58;;;;;;;10.88;2.72;;;10.10;99.90;;;;;;5045410;28;20044;-57
2022/03/31 12:00:27;;;;;;;12.10;2.88;;;10.00;99.90;;;;;;5038168;28;20029;-57
2022/03/31 12:03:07;;;;;;;11.82;3.03;;;10.00;99.90;;;;;;5050613;28;20025;-57
2022/03/31 12:05:33;;;;;;;16.08;4.15;;;10.20;99.90;;;;;;5044048;28;20040;-57
2022/03/31 12:08:00;;;;;;;18.23;3.97;;;10.30;99.90;;;;;;5049962;28;20375;-57
2022/03/31 12:10:29;;;;;;;13.20;6.25;;;10.30;99.90;;;;;;5050094;28;20021;-57
2022/03/31 12:12:56;;;;;;;6.85;5.97;;;10.10;99.90;;;;;;5042129;28;20021;-57
2022/03/31 12:15:30;;;;;;;16.40;9.60;;;9.90;99.90;;;;;;5049247;28;20525;-57
2022/03/31 12:18:04;;;;;;;11.88;7.10;;;9.60;99.90;;;;;;5042881;28;20447;-57
2022/03/31 12:20:31;;;;;;;11.65;6.40;;;9.40;99.90;;;;;;5047857;28;20020;-57
2022/03/31 12:22:57;;;;;;;7.43;3.88;;;9.40;99.90;;;;;;5043963;28;20039;-57
2022/03/31 12:25:28;;;;;;;5.55;2.63;;;9.20;99.90;;;;;;5047504;28;20553;-57
2022/03/31 12:28:03;;;;;;;8.80;3.08;;;9.20;99.90;;;;;;5045441;28;20032;-58
2022/03/31 12:30:44;;;;;;;7.53;3.28;;;9.30;99.90;;;;;;5043977;28;20029;-57
2022/03/31 12:33:18;;;;;;;7.85;2.40;;;9.60;99.90;;;;;;5042942;28;20043;-57
2022/03/31 12:36:01;;;;;;;9.57;2.13;;;9.80;99.90;;;;;;5038501;28;20363;-57
2022/03/31 12:38:38;;;;;;;8.50;2.15;;;10.10;99.40;;;;;;5042760;28;20028;-59
2022/03/31 12:41:23;;;;;;;4.97;2.88;;;10.90;97.60;;;;;;5038865;28;20044;-57
2022/03/31 12:44:31;;;;;;;18.38;2.45;;;11.10;97.30;;;;;;5045573;28;20040;-57
2022/03/31 12:46:59;;;;;;;6.93;1.90;;;12.10;95.60;;;;;;5028976;28;20532;-57
2022/03/31 12:49:36;;;;;;;7.13;1.70;;;12.40;93.80;;;;;;5046015;28;20445;-57
2022/03/31 12:52:09;;;;;;;7.93;2.00;;;12.60;94.10;;;;;;5048063;28;20087;-62
2022/03/31 12:54:38;;;;;;;7.53;1.77;;;13.20;92.50;;;;;;5062244;28;20029;-58
2022/03/31 12:57:12;;;;;;;8.32;2.10;;;13.40;90.80;;;;;;5047498;28;20070;-58
2022/03/31 12:59:39;;;;;;;6.38;2.45;;;12.90;89.40;;;;;;5041300;28;20025;-58